Capitol Logistics 1151


EBLG
Liège Airport
Liege, BE
ESSA
Arlanda
Stockholm, SE

Activity Log

Date Flight Route Aircraft Duration
12/02/2019 CPX1151 Not Available B738 2h 41m

Route Details

Aircraft Information
Primary: Boeing 737-800BCF
Backup: Not Available
Route Data
Distance: 689nm
Sched. Duration: 1h 44m
Avg. Duration: 2h 41m (+96m)
Times Flown: 1
Recm'd Route: Not Available
Planned Altitude: 35,000ft
Origin Wx: EBLG 181620Z 23015KT 9999 FEW022 SCT042 07/01 Q1021 NOSIG
Dest. Wx: ESSA 181620Z 23015KT 9999 BKN033 06/01 Q0992 R01L/09//95 R08/09//95 R01R/09//95 NOSIG
Notes:

Financial History
Total Freight: 43,296lbs
Average Load: 43,296lbs/flt
Fuel Used: 13,974lbs
Avg. Fuel Used: 13,974lbs/flt
Fuel Expense: $15,511
Avg. Fuel Expense: $15,511
Avg. Fuel Cost: $1.11/lbs
Total Gross Income: $104,776
Pilot Pay: $239
Total Expenses: $11,368
Total Revenue: $77,321
Average Revenue: $104,776.32